sensor_id;sensor_type;location;lat;lon;timestamp;temperature;humidity
81902;DHT22;71369;50.796;3.290;2024-03-23T06:01:46;5.00;99.90
81902;DHT22;71369;50.796;3.290;2024-03-23T06:11:30;4.80;99.90
81902;DHT22;71369;50.796;3.290;2024-03-23T07:04:17;8.80;98.70
81902;DHT22;71369;50.796;3.290;2024-03-23T07:07:42;8.20;99.90
81902;DHT22;71369;50.796;3.290;2024-03-23T07:09:56;7.80;99.90
81902;DHT22;71369;50.796;3.290;2024-03-23T07:12:22;7.90;99.90
81902;DHT22;71369;50.796;3.290;2024-03-23T07:14:47;8.40;99.90
81902;DHT22;71369;50.796;3.290;2024-03-23T07:17:13;8.90;99.90
81902;DHT22;71369;50.796;3.290;2024-03-23T07:19:59;9.60;96.70
81902;DHT22;71369;50.796;3.290;2024-03-23T07:22:26;9.90;96.20
81902;DHT22;71369;50.796;3.290;2024-03-23T07:24:54;10.20;94.80
81902;DHT22;71369;50.796;3.290;2024-03-23T07:30:12;10.00;95.90
81902;DHT22;71369;50.796;3.290;2024-03-23T07:32:38;10.40;94.20
81902;DHT22;71369;50.796;3.290;2024-03-23T07:35:04;10.90;92.90
81902;DHT22;71369;50.796;3.290;2024-03-23T07:37:35;11.00;91.10
81902;DHT22;71369;50.796;3.290;2024-03-23T07:40:16;10.90;91.70
81902;DHT22;71369;50.796;3.290;2024-03-23T07:42:55;11.30;90.20
81902;DHT22;71369;50.796;3.290;2024-03-23T07:45:29;11.70;91.20
81902;DHT22;71369;50.796;3.290;2024-03-23T07:48:05;12.00;83.30
81902;DHT22;71369;50.796;3.290;2024-03-23T07:50:32;12.20;84.80
81902;DHT22;71369;50.796;3.290;2024-03-23T07:52:57;12.50;82.80
81902;DHT22;71369;50.796;3.290;2024-03-23T07:55:23;12.80;79.00
81902;DHT22;71369;50.796;3.290;2024-03-23T07:57:56;12.80;74.90
81902;DHT22;71369;50.796;3.290;2024-03-23T08:00:26;12.60;80.20
81902;DHT22;71369;50.796;3.290;2024-03-23T08:02:52;12.80;73.70
81902;DHT22;71369;50.796;3.290;2024-03-23T08:05:18;12.90;78.00
81902;DHT22;71369;50.796;3.290;2024-03-23T08:07:55;12.70;77.40
81902;DHT22;71369;50.796;3.290;2024-03-23T08:10:21;12.70;76.10
81902;DHT22;71369;50.796;3.290;2024-03-23T08:12:49;12.20;76.80
81902;DHT22;71369;50.796;3.290;2024-03-23T08:15:14;11.90;78.30
81902;DHT22;71369;50.796;3.290;2024-03-23T08:17:52;12.10;76.80
81902;DHT22;71369;50.796;3.290;2024-03-23T08:20:34;12.30;75.00
81902;DHT22;71369;50.796;3.290;2024-03-23T08:23:35;12.90;71.40
81902;DHT22;71369;50.796;3.290;2024-03-23T08:26:19;13.30;72.50
81902;DHT22;71369;50.796;3.290;2024-03-23T08:28:45;13.40;67.80
81902;DHT22;71369;50.796;3.290;2024-03-23T08:31:13;14.00;65.30
81902;DHT22;71369;50.796;3.290;2024-03-23T08:34:08;13.90;66.00
81902;DHT22;71369;50.796;3.290;2024-03-23T08:44:14;13.90;64.20
81902;DHT22;71369;50.796;3.290;2024-03-23T08:50:02;14.10;63.40
81902;DHT22;71369;50.796;3.290;2024-03-23T08:55:43;12.60;69.10
81902;DHT22;71369;50.796;3.290;2024-03-23T08:58:51;11.10;79.40
81902;DHT22;71369;50.796;3.290;2024-03-23T09:01:17;11.60;80.90
81902;DHT22;71369;50.796;3.290;2024-03-23T09:03:53;12.50;73.30
81902;DHT22;71369;50.796;3.290;2024-03-23T09:06:25;13.40;65.30
81902;DHT22;71369;50.796;3.290;2024-03-23T09:09:43;13.00;68.70
81902;DHT22;71369;50.796;3.290;2024-03-23T09:12:08;12.00;67.70
81902;DHT22;71369;50.796;3.290;2024-03-23T09:14:36;11.40;76.90
81902;DHT22;71369;50.796;3.290;2024-03-23T09:17:05;11.50;74.40
81902;DHT22;71369;50.796;3.290;2024-03-23T09:23:02;11.30;76.90
81902;DHT22;71369;50.796;3.290;2024-03-23T09:25:30;11.60;72.50
81902;DHT22;71369;50.796;3.290;2024-03-23T09:27:56;11.30;72.20
81902;DHT22;71369;50.796;3.290;2024-03-23T09:30:22;10.70;77.10
81902;DHT22;71369;50.796;3.290;2024-03-23T09:33:18;10.00;79.80
81902;DHT22;71369;50.796;3.290;2024-03-23T09:36:04;9.60;86.60
81902;DHT22;71369;50.796;3.290;2024-03-23T09:38:46;9.80;83.10
81902;DHT22;71369;50.796;3.290;2024-03-23T09:41:22;10.60;77.70
81902;DHT22;71369;50.796;3.290;2024-03-23T09:43:47;10.50;76.90
81902;DHT22;71369;50.796;3.290;2024-03-23T09:46:15;11.10;76.40
81902;DHT22;71369;50.796;3.290;2024-03-23T09:48:43;11.90;71.20
81902;DHT22;71369;50.796;3.290;2024-03-23T09:51:14;13.00;65.10
81902;DHT22;71369;50.796;3.290;2024-03-23T09:53:39;13.00;61.10
81902;DHT22;71369;50.796;3.290;2024-03-23T09:56:05;12.10;63.10
81902;DHT22;71369;50.796;3.290;2024-03-23T09:58:35;12.40;65.80
81902;DHT22;71369;50.796;3.290;2024-03-23T10:01:02;13.30;58.60
81902;DHT22;71369;50.796;3.290;2024-03-23T10:03:28;14.00;57.80
81902;DHT22;71369;50.796;3.290;2024-03-23T10:06:01;14.60;57.60
81902;DHT22;71369;50.796;3.290;2024-03-23T10:11:49;14.80;53.10
81902;DHT22;71369;50.796;3.290;2024-03-23T10:14:29;13.80;55.60
81902;DHT22;71369;50.796;3.290;2024-03-23T10:17:17;13.80;57.00
81902;DHT22;71369;50.796;3.290;2024-03-23T10:19:46;15.00;54.10
81902;DHT22;71369;50.796;3.290;2024-03-23T10:22:38;15.50;50.40
81902;DHT22;71369;50.796;3.290;2024-03-23T10:25:08;14.70;52.10
81902;DHT22;71369;50.796;3.290;2024-03-23T10:27:35;13.70;55.60
81902;DHT22;71369;50.796;3.290;2024-03-23T10:30:11;14.40;58.50
81902;DHT22;71369;50.796;3.290;2024-03-23T10:32:40;14.80;53.60
81902;DHT22;71369;50.796;3.290;2024-03-23T10:37:46;12.50;57.60
81902;DHT22;71369;50.796;3.290;2024-03-23T10:40:18;13.60;58.40
81902;DHT22;71369;50.796;3.290;2024-03-23T10:43:04;14.20;54.70
81902;DHT22;71369;50.796;3.290;2024-03-23T10:45:30;13.30;54.10
81902;DHT22;71369;50.796;3.290;2024-03-23T10:47:59;12.90;53.80
81902;DHT22;71369;50.796;3.290;2024-03-23T10:50:26;12.40;56.20
81902;DHT22;71369;50.796;3.290;2024-03-23T10:52:53;12.20;54.70
81902;DHT22;71369;50.796;3.290;2024-03-23T10:55:23;11.50;58.40
81902;DHT22;71369;50.796;3.290;2024-03-23T10:57:59;12.50;58.00
81902;DHT22;71369;50.796;3.290;2024-03-23T11:00:31;14.10;53.30
81902;DHT22;71369;50.796;3.290;2024-03-23T11:02:56;13.50;52.30
81902;DHT22;71369;50.796;3.290;2024-03-23T11:07:51;12.70;56.70
81902;DHT22;71369;50.796;3.290;2024-03-23T11:10:30;13.30;53.80
81902;DHT22;71369;50.796;3.290;2024-03-23T11:12:57;12.50;57.20
81902;DHT22;71369;50.796;3.290;2024-03-23T11:15:22;12.50;56.80
81902;DHT22;71369;50.796;3.290;2024-03-23T11:18:07;12.10;56.50
81902;DHT22;71369;50.796;3.290;2024-03-23T11:23:42;10.30;75.00
81902;DHT22;71369;50.796;3.290;2024-03-23T11:26:08;10.20;73.10
81902;DHT22;71369;50.796;3.290;2024-03-23T11:28:34;10.20;71.00
81902;DHT22;71369;50.796;3.290;2024-03-23T11:30:59;10.20;72.00
81902;DHT22;71369;50.796;3.290;2024-03-23T11:36:48;10.10;87.60
81902;DHT22;71369;50.796;3.290;2024-03-23T11:39:20;9.80;84.80
81902;DHT22;71369;50.796;3.290;2024-03-23T11:42:06;9.60;85.10
81902;DHT22;71369;50.796;3.290;2024-03-23T11:44:32;9.60;86.00
81902;DHT22;71369;50.796;3.290;2024-03-23T11:50:22;9.00;90.50
81902;DHT22;71369;50.796;3.290;2024-03-23T11:56:02;10.00;93.20
81902;DHT22;71369;50.796;3.290;2024-03-23T11:58:39;11.40;88.90
81902;DHT22;71369;50.796;3.290;2024-03-23T12:01:20;11.20;82.10
81902;DHT22;71369;50.796;3.290;2024-03-23T12:03:59;10.60;83.50
81902;DHT22;71369;50.796;3.290;2024-03-23T12:06:25;10.00;88.40
81902;DHT22;71369;50.796;3.290;2024-03-23T12:08:51;9.60;88.20
81902;DHT22;71369;50.796;3.290;2024-03-23T12:11:17;9.50;87.40
81902;DHT22;71369;50.796;3.290;2024-03-23T12:13:45;9.30;90.70
81902;DHT22;71369;50.796;3.290;2024-03-23T12:16:47;9.30;90.40
81902;DHT22;71369;50.796;3.290;2024-03-23T12:19:15;10.00;90.20
81902;DHT22;71369;50.796;3.290;2024-03-23T12:21:47;11.70;88.70
81902;DHT22;71369;50.796;3.290;2024-03-23T12:39:19;10.40;82.50
81902;DHT22;71369;50.796;3.290;2024-03-23T12:42:24;9.90;85.40
81902;DHT22;71369;50.796;3.290;2024-03-23T12:51:37;8.90;92.00
81902;DHT22;71369;50.796;3.290;2024-03-23T13:00:01;7.90;93.10
81902;DHT22;71369;50.796;3.290;2024-03-23T13:03:02;7.40;95.90
81902;DHT22;71369;50.796;3.290;2024-03-23T13:05:59;8.00;99.90
81902;DHT22;71369;50.796;3.290;2024-03-23T13:45:20;13.40;57.60
81902;DHT22;71369;50.796;3.290;2024-03-23T13:51:01;11.60;61.70
81902;DHT22;71369;50.796;3.290;2024-03-23T14:01:20;13.20;61.10
81902;DHT22;71369;50.796;3.290;2024-03-23T14:36:29;11.80;59.80
81902;DHT22;71369;50.796;3.290;2024-03-23T14:38:55;11.70;59.20
81902;DHT22;71369;50.796;3.290;2024-03-23T14:42:04;11.60;61.10
81902;DHT22;71369;50.796;3.290;2024-03-23T14:45:23;11.40;58.60
81902;DHT22;71369;50.796;3.290;2024-03-23T14:48:14;11.20;62.50
81902;DHT22;71369;50.796;3.290;2024-03-23T14:51:06;11.40;63.10
81902;DHT22;71369;50.796;3.290;2024-03-23T14:53:58;11.50;58.40
81902;DHT22;71369;50.796;3.290;2024-03-23T14:56:26;11.70;62.00
81902;DHT22;71369;50.796;3.290;2024-03-23T14:59:00;11.70;57.50
81902;DHT22;71369;50.796;3.290;2024-03-23T15:01:29;11.60;57.80
81902;DHT22;71369;50.796;3.290;2024-03-23T15:04:11;11.50;60.30
81902;DHT22;71369;50.796;3.290;2024-03-23T15:06:48;11.50;59.10
81902;DHT22;71369;50.796;3.290;2024-03-23T16:52:31;9.70;81.90
81902;DHT22;71369;50.796;3.290;2024-03-23T16:58:25;9.80;83.60
81902;DHT22;71369;50.796;3.290;2024-03-23T17:00:54;9.70;80.80
81902;DHT22;71369;50.796;3.290;2024-03-23T17:03:23;9.70;83.40
81902;DHT22;71369;50.796;3.290;2024-03-23T17:06:13;9.70;79.00
81902;DHT22;71369;50.796;3.290;2024-03-23T17:08:46;9.60;82.00
81902;DHT22;71369;50.796;3.290;2024-03-23T17:11:23;9.50;80.40
81902;DHT22;71369;50.796;3.290;2024-03-23T17:17:35;9.20;84.80
81902;DHT22;71369;50.796;3.290;2024-03-23T17:20:25;8.90;89.70
81902;DHT22;71369;50.796;3.290;2024-03-23T17:23:11;8.80;91.40
81902;DHT22;71369;50.796;3.290;2024-03-23T19:00:57;6.60;99.90
81902;DHT22;71369;50.796;3.290;2024-03-23T19:03:38;6.50;99.90
81902;DHT22;71369;50.796;3.290;2024-03-23T19:06:07;6.50;99.90
81902;DHT22;71369;50.796;3.290;2024-03-23T19:08:36;6.50;99.90
81902;DHT22;71369;50.796;3.290;2024-03-23T19:11:12;6.40;99.90
81902;DHT22;71369;50.796;3.290;2024-03-23T19:17:26;6.40;99.90
81902;DHT22;71369;50.796;3.290;2024-03-23T19:20:34;6.20;99.90
81902;DHT22;71369;50.796;3.290;2024-03-23T19:27:18;6.20;99.90
81902;DHT22;71369;50.796;3.290;2024-03-23T19:30:37;6.10;99.90
81902;DHT22;71369;50.796;3.290;2024-03-23T19:43:35;6.10;99.90
81902;DHT22;71369;50.796;3.290;2024-03-23T19:46:32;6.00;99.90
81902;DHT22;71369;50.796;3.290;2024-03-23T19:49:26;6.00;99.90
81902;DHT22;71369;50.796;3.290;2024-03-23T19:52:18;6.00;99.90
81902;DHT22;71369;50.796;3.290;2024-03-23T19:55:12;6.00;99.90
81902;DHT22;71369;50.796;3.290;2024-03-23T19:58:00;6.00;99.90
81902;DHT22;71369;50.796;3.290;2024-03-23T20:01:02;5.90;99.90
81902;DHT22;71369;50.796;3.290;2024-03-23T20:18:06;5.80;99.90
81902;DHT22;71369;50.796;3.290;2024-03-23T20:21:03;5.80;99.90
81902;DHT22;71369;50.796;3.290;2024-03-23T20:23:50;5.80;99.90
81902;DHT22;71369;50.796;3.290;2024-03-23T20:26:56;5.70;99.90
81902;DHT22;71369;50.796;3.290;2024-03-23T20:39:34;5.70;99.90
81902;DHT22;71369;50.796;3.290;2024-03-23T20:42:31;5.70;99.90
81902;DHT22;71369;50.796;3.290;2024-03-23T20:45:20;5.60;99.90
81902;DHT22;71369;50.796;3.290;2024-03-23T20:48:27;5.50;99.90
81902;DHT22;71369;50.796;3.290;2024-03-23T20:58:32;5.50;99.90
81902;DHT22;71369;50.796;3.290;2024-03-23T21:01:20;5.60;99.90
81902;DHT22;71369;50.796;3.290;2024-03-23T21:04:11;5.60;99.90
81902;DHT22;71369;50.796;3.290;2024-03-23T21:06:50;5.60;99.90
81902;DHT22;71369;50.796;3.290;2024-03-23T21:09:26;5.50;99.90
81902;DHT22;71369;50.796;3.290;2024-03-23T21:11:57;5.50;99.90
81902;DHT22;71369;50.796;3.290;2024-03-23T21:14:25;5.50;99.90
81902;DHT22;71369;50.796;3.290;2024-03-23T21:17:09;5.50;99.90
81902;DHT22;71369;50.796;3.290;2024-03-23T21:19:49;5.50;99.90
81902;DHT22;71369;50.796;3.290;2024-03-23T21:22:15;5.50;99.90
81902;DHT22;71369;50.796;3.290;2024-03-23T21:24:42;5.40;99.90
81902;DHT22;71369;50.796;3.290;2024-03-23T21:30:10;5.30;99.90
81902;DHT22;71369;50.796;3.290;2024-03-23T21:57:37;5.10;99.90
